createdAt,value
2023-06-30T00:01:49.083Z,80.35
2023-06-30T00:04:18.701Z,80.21
2023-06-30T00:06:50.093Z,80.35
2023-06-30T00:09:19.440Z,80.51
2023-06-30T00:11:51.288Z,80.60
2023-06-30T00:14:21.315Z,80.23
2023-06-30T00:16:51.973Z,80.27
2023-06-30T00:19:21.438Z,79.96
2023-06-30T00:21:53.112Z,80.24
2023-06-30T00:24:22.085Z,80.28
2023-06-30T00:26:51.271Z,80.09
2023-06-30T00:29:20.170Z,80.36
2023-06-30T00:31:49.802Z,80.37
2023-06-30T00:34:18.561Z,81.02
2023-06-30T00:36:50.285Z,81.55
2023-06-30T00:39:19.200Z,81.76
2023-06-30T00:41:48.700Z,81.90
2023-06-30T00:44:17.497Z,82.14
2023-06-30T00:46:46.424Z,82.25
2023-06-30T00:49:16.336Z,82.34
2023-06-30T00:51:45.403Z,82.58
2023-06-30T00:54:15.772Z,82.27
2023-06-30T00:56:44.493Z,81.67
2023-06-30T00:59:17.754Z,82.19
2023-06-30T01:01:54.966Z,81.84
2023-06-30T01:04:31.741Z,81.73
2023-06-30T01:07:09.936Z,81.78
2023-06-30T01:09:50.139Z,81.62
2023-06-30T01:12:19.626Z,81.69
2023-06-30T01:14:50.748Z,81.56
2023-06-30T01:17:22.345Z,81.70
2023-06-30T01:19:54.097Z,81.88
2023-06-30T01:22:27.104Z,82.11
2023-06-30T01:25:00.810Z,82.41
2023-06-30T01:27:32.921Z,82.77
2023-06-30T01:30:02.604Z,83.08
2023-06-30T01:32:31.615Z,82.74
2023-06-30T01:35:00.477Z,82.81
2023-06-30T01:37:29.232Z,83.00
2023-06-30T01:40:01.551Z,83.34
2023-06-30T01:42:32.259Z,83.44
2023-06-30T01:45:02.837Z,83.53
2023-06-30T01:47:33.858Z,83.73
2023-06-30T01:50:02.904Z,83.40
2023-06-30T01:52:32.464Z,83.62
2023-06-30T01:55:02.801Z,83.78
2023-06-30T01:57:31.861Z,83.50
2023-06-30T02:00:00.889Z,84.12
2023-06-30T02:02:29.747Z,84.13
2023-06-30T02:04:59.038Z,83.92
2023-06-30T02:07:27.872Z,84.00
2023-06-30T02:09:56.606Z,84.22
2023-06-30T02:12:25.520Z,84.75
2023-06-30T02:14:54.317Z,85.30
2023-06-30T02:17:28.991Z,84.87
2023-06-30T02:19:58.112Z,84.61
2023-06-30T02:22:27.139Z,84.59
2023-06-30T02:24:56.814Z,84.84
2023-06-30T02:27:27.094Z,84.82
2023-06-30T02:29:57.140Z,84.87
2023-06-30T02:32:25.943Z,84.98
2023-06-30T02:34:55.009Z,85.41
2023-06-30T02:37:23.812Z,85.32
2023-06-30T02:39:53.147Z,85.81
2023-06-30T02:42:21.928Z,86.21
2023-06-30T02:44:50.928Z,85.85
2023-06-30T02:47:19.876Z,85.65
2023-06-30T02:49:49.984Z,85.64
2023-06-30T02:52:19.740Z,85.89
2023-06-30T02:54:51.236Z,85.75
2023-06-30T02:57:22.199Z,85.64
2023-06-30T02:59:51.133Z,85.78
2023-06-30T03:02:20.075Z,85.68
2023-06-30T03:04:51.414Z,85.77
2023-06-30T03:07:20.513Z,85.91
2023-06-30T03:09:51.685Z,86.05
2023-06-30T03:12:20.610Z,86.27
2023-06-30T03:14:52.408Z,86.01
2023-06-30T03:17:21.455Z,85.89
2023-06-30T03:19:53.386Z,86.05
2023-06-30T03:22:22.903Z,86.08
2023-06-30T03:24:51.759Z,86.16
2023-06-30T03:27:20.505Z,85.80
2023-06-30T03:29:52.743Z,85.67
2023-06-30T03:32:21.666Z,85.56
2023-06-30T03:34:53.730Z,85.57
2023-06-30T03:37:22.588Z,85.53
2023-06-30T03:39:52.575Z,85.45
2023-06-30T03:42:22.180Z,85.43
2023-06-30T03:44:51.142Z,85.50
2023-06-30T03:47:19.917Z,85.51
2023-06-30T03:49:50.136Z,85.57
2023-06-30T03:52:19.041Z,85.53
2023-06-30T03:54:49.019Z,85.50
2023-06-30T03:57:17.937Z,85.50
2023-06-30T03:59:50.051Z,85.56
2023-06-30T04:02:20.502Z,85.40
2023-06-30T04:04:50.060Z,85.15
2023-06-30T04:07:20.133Z,84.85
2023-06-30T04:09:50.063Z,85.21
2023-06-30T04:12:18.904Z,84.84
2023-06-30T04:14:49.585Z,84.47
2023-06-30T04:17:18.444Z,83.85
2023-06-30T04:19:48.174Z,83.19
2023-06-30T04:22:17.068Z,82.42
2023-06-30T04:24:45.818Z,81.72
2023-06-30T04:27:14.728Z,80.41
2023-06-30T04:29:46.609Z,80.31
2023-06-30T04:32:18.462Z,79.90
2023-06-30T04:34:50.234Z,79.06
2023-06-30T04:37:19.920Z,79.25
2023-06-30T04:39:50.937Z,78.96
2023-06-30T04:42:19.684Z,77.31
2023-06-30T04:44:51.288Z,74.69
2023-06-30T04:47:20.186Z,70.43
2023-06-30T04:49:49.816Z,64.15
2023-06-30T04:52:18.604Z,58.20
2023-06-30T04:54:48.814Z,55.90
2023-06-30T04:57:17.631Z,50.33
2023-06-30T04:59:46.812Z,48.25
2023-06-30T05:02:17.002Z,45.56
2023-06-30T05:04:54.721Z,41.69
2023-06-30T05:07:23.669Z,39.59
2023-06-30T05:09:52.626Z,39.00
2023-06-30T05:12:21.457Z,36.65
2023-06-30T05:14:51.197Z,35.68
2023-06-30T05:17:20.485Z,34.47
2023-06-30T05:19:52.475Z,33.46
2023-06-30T05:22:21.636Z,33.11
2023-06-30T05:24:51.228Z,31.86
2023-06-30T05:27:20.114Z,31.67
2023-06-30T05:29:51.721Z,31.34
2023-06-30T05:32:20.734Z,29.83
2023-06-30T05:34:52.692Z,29.56
2023-06-30T05:37:22.090Z,29.39
2023-06-30T05:39:50.983Z,29.70
2023-06-30T05:42:20.146Z,29.21
2023-06-30T05:44:51.455Z,28.83
2023-06-30T05:47:20.262Z,27.17
2023-06-30T05:49:49.984Z,26.33
2023-06-30T05:52:21.959Z,26.80
2023-06-30T05:54:50.803Z,26.15
2023-06-30T05:57:19.736Z,25.58
2023-06-30T05:59:49.442Z,26.91
2023-06-30T06:02:18.586Z,24.87
2023-06-30T06:04:48.603Z,24.63
2023-06-30T06:07:17.627Z,25.77
2023-06-30T06:09:46.927Z,24.46
2023-06-30T06:12:17.351Z,24.70
2023-06-30T06:14:49.548Z,24.26
2023-06-30T06:17:17.489Z,24.39
2023-06-30T06:19:53.193Z,25.22
2023-06-30T06:22:22.002Z,24.98
2023-06-30T06:24:50.956Z,25.65
2023-06-30T06:27:19.750Z,27.27
2023-06-30T06:29:50.891Z,29.23
2023-06-30T06:32:19.776Z,31.13
2023-06-30T06:34:51.133Z,33.35
2023-06-30T06:37:20.420Z,34.47
2023-06-30T06:39:51.882Z,36.71
2023-06-30T06:42:20.873Z,38.73
2023-06-30T06:44:51.264Z,39.57
2023-06-30T06:47:52.627Z,40.13
2023-06-30T06:50:22.020Z,41.04
2023-06-30T06:52:50.950Z,42.29
2023-06-30T06:55:19.831Z,42.91
2023-06-30T06:57:51.195Z,43.86
2023-06-30T07:00:20.766Z,44.07
2023-06-30T07:02:53.086Z,43.54
2023-06-30T07:05:22.248Z,43.74
2023-06-30T07:07:51.630Z,44.09
2023-06-30T07:10:20.398Z,44.17
2023-06-30T07:12:50.038Z,43.63
2023-06-30T07:15:18.916Z,43.71
2023-06-30T07:17:49.216Z,43.37
2023-06-30T07:20:18.217Z,44.42
2023-06-30T07:22:49.414Z,46.37
2023-06-30T07:25:18.249Z,45.65
2023-06-30T07:27:53.543Z,47.06
2023-06-30T07:30:24.043Z,45.23
2023-06-30T07:32:52.990Z,46.68
2023-06-30T07:35:23.296Z,45.40
2023-06-30T07:37:52.663Z,45.98
2023-06-30T07:40:24.011Z,45.43
2023-06-30T07:42:54.017Z,45.01
2023-06-30T07:45:23.098Z,44.00
2023-06-30T07:47:52.838Z,44.04
2023-06-30T07:50:21.989Z,44.47
2023-06-30T07:52:51.073Z,44.04
2023-06-30T07:55:20.724Z,45.22
2023-06-30T07:57:52.331Z,45.18
2023-06-30T08:00:21.857Z,43.74
2023-06-30T08:02:54.381Z,43.18
2023-06-30T08:05:24.247Z,41.97
2023-06-30T08:07:53.363Z,43.29
2023-06-30T08:10:22.477Z,42.17
2023-06-30T08:12:51.471Z,40.96
2023-06-30T08:15:20.463Z,43.15
2023-06-30T08:17:53.989Z,42.93
2023-06-30T08:20:26.828Z,43.26
2023-06-30T08:22:56.450Z,42.70
2023-06-30T08:25:26.020Z,42.95
2023-06-30T08:27:54.850Z,45.84
2023-06-30T08:30:25.295Z,43.95
2023-06-30T08:32:55.224Z,43.11
2023-06-30T08:35:24.566Z,44.04
2023-06-30T08:37:54.341Z,43.00
2023-06-30T08:40:31.501Z,42.51
2023-06-30T08:43:06.203Z,42.65
2023-06-30T08:45:35.219Z,41.03
2023-06-30T08:48:06.310Z,41.75
2023-06-30T08:50:38.540Z,41.46
2023-06-30T08:53:07.513Z,40.54
2023-06-30T08:55:36.652Z,40.42
2023-06-30T08:58:13.261Z,39.31
2023-06-30T09:00:46.725Z,38.93
2023-06-30T09:03:18.729Z,40.27
2023-06-30T09:05:53.615Z,40.15
2023-06-30T09:08:25.086Z,37.86
2023-06-30T09:10:56.693Z,37.93
2023-06-30T09:13:27.027Z,37.81
2023-06-30T09:15:58.723Z,38.39
2023-06-30T09:18:27.677Z,37.58
2023-06-30T09:20:57.107Z,36.98
2023-06-30T09:23:27.110Z,36.41
2023-06-30T09:25:55.973Z,36.85
2023-06-30T09:28:25.802Z,38.07
2023-06-30T09:31:00.633Z,39.14
2023-06-30T09:33:29.433Z,37.28
2023-06-30T09:35:59.462Z,37.97
2023-06-30T09:38:30.217Z,37.67
2023-06-30T09:40:59.109Z,37.82
2023-06-30T09:43:28.580Z,38.41
2023-06-30T09:45:58.659Z,38.05
2023-06-30T09:48:31.007Z,37.71
2023-06-30T09:51:00.671Z,36.41
2023-06-30T09:53:37.405Z,35.45
2023-06-30T09:56:07.164Z,34.66
2023-06-30T09:58:38.436Z,36.68
2023-06-30T10:01:08.117Z,35.82
2023-06-30T10:03:49.025Z,35.24
2023-06-30T10:06:20.963Z,33.35
2023-06-30T10:08:51.696Z,34.98
2023-06-30T10:11:23.602Z,34.49
2023-06-30T10:13:55.865Z,33.65
2023-06-30T10:16:25.103Z,32.40
2023-06-30T10:18:56.029Z,33.16
2023-06-30T10:21:25.228Z,31.98
2023-06-30T10:23:55.117Z,32.05
2023-06-30T10:26:26.174Z,32.43
2023-06-30T10:28:56.205Z,31.83
2023-06-30T10:31:26.457Z,31.48
2023-06-30T10:33:56.512Z,31.90
2023-06-30T10:36:27.184Z,32.44
2023-06-30T10:38:56.270Z,30.81
2023-06-30T10:41:25.344Z,32.11
2023-06-30T10:44:10.727Z,31.76
2023-06-30T10:46:46.686Z,31.51
2023-06-30T10:49:24.217Z,30.76
2023-06-30T10:51:55.052Z,31.58
2023-06-30T10:54:28.023Z,32.06
2023-06-30T10:57:08.688Z,31.89
2023-06-30T10:59:42.362Z,32.74
2023-06-30T11:02:23.717Z,33.32
2023-06-30T11:04:53.679Z,32.79
2023-06-30T11:07:26.592Z,31.33
2023-06-30T11:10:04.421Z,31.20
2023-06-30T11:13:02.506Z,31.20
2023-06-30T11:15:38.126Z,31.21
2023-06-30T11:18:12.022Z,30.83
2023-06-30T11:20:57.602Z,30.52
2023-06-30T11:23:29.353Z,31.54
2023-06-30T11:25:58.881Z,32.63
2023-06-30T11:28:29.255Z,31.49
2023-06-30T11:31:01.822Z,31.72
2023-06-30T11:33:30.115Z,31.65
2023-06-30T11:36:00.213Z,31.19
2023-06-30T11:38:29.257Z,30.10
2023-06-30T11:41:00.674Z,31.13
2023-06-30T11:43:34.320Z,31.49
2023-06-30T11:46:03.436Z,30.44
2023-06-30T11:48:38.611Z,31.09
2023-06-30T11:51:07.850Z,30.57
2023-06-30T11:53:37.101Z,30.48
2023-06-30T11:56:06.511Z,30.15
2023-06-30T11:58:35.335Z,30.70
2023-06-30T12:01:05.058Z,30.68
2023-06-30T12:03:36.571Z,31.30
2023-06-30T12:06:06.573Z,29.54
2023-06-30T12:08:37.916Z,30.61
2023-06-30T12:11:07.678Z,30.32
2023-06-30T12:13:41.624Z,30.25
2023-06-30T12:16:13.265Z,28.42
2023-06-30T12:18:46.039Z,29.38
2023-06-30T12:21:14.756Z,30.73
2023-06-30T12:23:45.734Z,29.82
2023-06-30T12:26:15.736Z,29.68
2023-06-30T12:28:44.523Z,30.02
2023-06-30T12:31:13.612Z,29.27
2023-06-30T12:33:52.309Z,29.70
2023-06-30T12:36:23.100Z,30.24
2023-06-30T12:38:52.542Z,29.77
2023-06-30T12:41:21.466Z,29.48
2023-06-30T12:43:52.285Z,29.20
2023-06-30T12:46:21.324Z,29.27
2023-06-30T12:48:51.251Z,28.98
2023-06-30T12:51:20.270Z,29.84
2023-06-30T12:53:51.448Z,31.10
2023-06-30T12:56:20.280Z,31.35
2023-06-30T12:58:51.558Z,31.51
2023-06-30T13:01:20.783Z,32.98
2023-06-30T13:03:50.465Z,33.25
2023-06-30T13:06:19.871Z,34.28
2023-06-30T13:08:50.074Z,33.84
2023-06-30T13:11:19.081Z,34.96
2023-06-30T13:13:50.133Z,35.61
2023-06-30T13:16:19.337Z,36.46
2023-06-30T13:18:51.147Z,36.34
2023-06-30T13:21:50.460Z,38.18
2023-06-30T13:24:27.067Z,37.88
2023-06-30T13:26:59.802Z,38.33
2023-06-30T13:29:28.892Z,38.25
2023-06-30T13:31:58.413Z,39.26
2023-06-30T13:34:27.296Z,39.02
2023-06-30T13:36:58.369Z,39.44
2023-06-30T13:39:27.866Z,39.64
2023-06-30T13:41:56.874Z,40.21
2023-06-30T13:44:29.525Z,41.00
2023-06-30T13:46:58.850Z,41.76
2023-06-30T13:49:27.556Z,41.94
2023-06-30T13:51:56.594Z,41.85
2023-06-30T13:54:25.526Z,41.12
2023-06-30T13:56:54.517Z,41.40
2023-06-30T13:59:23.721Z,42.34
2023-06-30T14:01:52.723Z,41.69
2023-06-30T14:04:21.973Z,42.97
2023-06-30T14:06:51.846Z,43.58
2023-06-30T14:09:20.721Z,42.37
2023-06-30T14:11:50.538Z,42.37
2023-06-30T14:14:19.630Z,41.46
2023-06-30T14:16:49.345Z,41.17
2023-06-30T14:19:18.330Z,40.14
2023-06-30T14:21:47.160Z,40.58
2023-06-30T14:24:17.974Z,40.77
2023-06-30T14:26:46.996Z,39.75
2023-06-30T14:29:16.008Z,39.86
2023-06-30T14:31:44.966Z,38.81
2023-06-30T14:34:13.808Z,39.31
2023-06-30T14:36:43.313Z,38.88
2023-06-30T14:39:15.195Z,40.74
2023-06-30T14:41:57.290Z,40.25
2023-06-30T14:44:30.171Z,40.39
2023-06-30T14:47:00.668Z,41.07
2023-06-30T14:49:29.394Z,39.55
2023-06-30T14:52:00.406Z,39.75
2023-06-30T14:54:29.412Z,40.72
2023-06-30T14:56:58.378Z,40.44
2023-06-30T14:59:27.296Z,40.69
2023-06-30T15:01:56.626Z,40.82
2023-06-30T15:04:25.520Z,41.21
2023-06-30T15:06:54.815Z,41.76
2023-06-30T15:09:23.702Z,41.93
2023-06-30T15:11:52.581Z,42.77
2023-06-30T15:14:21.436Z,40.90
2023-06-30T15:16:52.862Z,41.07
2023-06-30T15:19:21.808Z,38.45
2023-06-30T15:21:52.729Z,39.12
2023-06-30T15:24:21.620Z,38.35
2023-06-30T15:26:53.047Z,38.36
2023-06-30T15:29:22.121Z,38.67
2023-06-30T15:31:55.151Z,39.71
2023-06-30T15:34:24.602Z,39.39
2023-06-30T15:36:53.552Z,38.73
2023-06-30T15:39:23.440Z,38.65
2023-06-30T15:41:53.322Z,39.26
2023-06-30T15:44:22.500Z,40.05
2023-06-30T15:46:52.017Z,40.12
2023-06-30T15:49:22.043Z,40.42
2023-06-30T15:51:51.512Z,41.01
2023-06-30T15:54:20.267Z,41.92
2023-06-30T15:56:51.557Z,41.45
2023-06-30T15:59:20.391Z,41.82
2023-06-30T16:01:51.884Z,41.90
2023-06-30T16:04:21.530Z,41.86
2023-06-30T16:06:52.957Z,41.49
2023-06-30T16:09:22.060Z,41.43
2023-06-30T16:11:51.798Z,41.82
2023-06-30T16:14:20.569Z,41.83
2023-06-30T16:16:50.507Z,42.96
2023-06-30T16:19:19.376Z,42.57
2023-06-30T16:21:49.625Z,42.26
2023-06-30T16:24:19.245Z,43.11
2023-06-30T16:26:50.952Z,43.86
2023-06-30T16:29:19.957Z,43.29
2023-06-30T16:31:51.579Z,42.51
2023-06-30T16:34:20.698Z,43.15
2023-06-30T16:36:53.596Z,42.87
2023-06-30T16:39:22.879Z,43.21
2023-06-30T16:41:53.071Z,43.48
2023-06-30T16:44:22.994Z,44.20
2023-06-30T16:46:54.133Z,44.16
2023-06-30T16:49:24.981Z,44.15
2023-06-30T16:51:54.208Z,44.07
2023-06-30T16:54:32.398Z,44.70
2023-06-30T16:58:14.916Z,45.11
2023-06-30T17:00:56.546Z,45.39
2023-06-30T17:03:25.789Z,45.54
2023-06-30T17:06:05.072Z,45.46
2023-06-30T17:08:54.115Z,45.75
2023-06-30T17:11:23.530Z,45.76
2023-06-30T17:13:54.337Z,45.84
2023-06-30T17:16:25.282Z,45.96
2023-06-30T17:18:58.285Z,46.36
2023-06-30T17:21:27.759Z,46.67
2023-06-30T17:23:56.921Z,46.83
2023-06-30T17:26:26.372Z,47.28
2023-06-30T17:28:58.802Z,46.79
2023-06-30T17:31:28.113Z,47.05
2023-06-30T17:33:57.539Z,47.72
2023-06-30T17:36:27.532Z,47.48
2023-06-30T17:38:58.619Z,47.74
2023-06-30T17:41:27.729Z,48.03
2023-06-30T17:44:00.670Z,47.84
2023-06-30T17:46:29.797Z,49.32
2023-06-30T17:49:24.046Z,49.47
2023-06-30T17:51:54.313Z,48.28
2023-06-30T17:54:23.754Z,49.30
2023-06-30T17:56:53.151Z,49.56
2023-06-30T17:59:22.464Z,50.20
2023-06-30T18:01:52.267Z,51.85
2023-06-30T18:04:21.725Z,50.13
2023-06-30T18:07:03.387Z,50.59
2023-06-30T18:09:34.326Z,51.17
2023-06-30T18:12:06.291Z,50.62
2023-06-30T18:14:38.265Z,51.08
2023-06-30T18:17:08.826Z,50.89
2023-06-30T18:19:39.741Z,51.50
2023-06-30T18:22:09.205Z,52.07
2023-06-30T18:24:38.357Z,51.67
2023-06-30T18:27:08.994Z,52.80
2023-06-30T18:29:40.032Z,52.30
2023-06-30T18:32:11.325Z,52.87
2023-06-30T18:34:40.855Z,52.15
2023-06-30T18:37:10.143Z,52.82
2023-06-30T18:39:42.163Z,53.13
2023-06-30T18:42:34.173Z,53.82
2023-06-30T18:45:11.762Z,53.74
2023-06-30T18:47:41.720Z,54.17
2023-06-30T18:50:12.304Z,55.12
2023-06-30T18:52:44.474Z,54.94
2023-06-30T18:55:16.012Z,54.85
2023-06-30T18:57:51.777Z,55.40
2023-06-30T19:00:23.406Z,55.34
2023-06-30T19:02:53.053Z,55.53
2023-06-30T19:05:22.656Z,55.32
2023-06-30T19:07:51.875Z,56.07
2023-06-30T19:10:24.857Z,56.17
2023-06-30T19:12:54.461Z,55.90
2023-06-30T19:15:24.075Z,56.96
2023-06-30T19:17:55.158Z,56.51
2023-06-30T19:20:27.551Z,57.02
2023-06-30T19:22:57.307Z,57.20
2023-06-30T19:25:31.478Z,57.15
2023-06-30T19:28:02.930Z,57.01
2023-06-30T19:30:31.989Z,57.69
2023-06-30T19:33:04.423Z,57.90
2023-06-30T19:35:37.421Z,58.12
2023-06-30T19:38:06.714Z,58.20
2023-06-30T19:40:37.761Z,58.61
2023-06-30T19:43:06.923Z,58.57
2023-06-30T19:45:39.058Z,58.95
2023-06-30T19:48:09.348Z,59.17
2023-06-30T19:50:42.017Z,58.57
2023-06-30T19:53:11.089Z,59.12
2023-06-30T19:55:41.686Z,60.11
2023-06-30T19:58:16.578Z,61.24
2023-06-30T20:00:45.648Z,62.46
2023-06-30T20:03:14.965Z,64.15
2023-06-30T20:05:45.633Z,64.20
2023-06-30T20:08:17.050Z,64.80
2023-06-30T20:10:46.233Z,65.24
2023-06-30T20:13:24.950Z,66.04
2023-06-30T20:15:57.164Z,66.96
2023-06-30T20:18:28.851Z,67.57
2023-06-30T20:21:01.621Z,68.06
2023-06-30T20:23:30.759Z,69.35
2023-06-30T20:26:02.335Z,70.10
2023-06-30T20:28:31.717Z,70.65
2023-06-30T20:31:03.303Z,71.03
2023-06-30T20:33:32.892Z,71.12
2023-06-30T20:36:02.158Z,71.01
2023-06-30T20:38:46.920Z,71.58
2023-06-30T20:41:20.137Z,71.81
2023-06-30T20:43:53.765Z,72.43
2023-06-30T20:46:26.007Z,72.93
2023-06-30T20:49:03.692Z,73.23
2023-06-30T20:51:45.975Z,73.60
2023-06-30T20:54:17.772Z,74.07
2023-06-30T20:56:47.074Z,74.78
2023-06-30T20:59:17.691Z,75.30
2023-06-30T21:01:47.285Z,75.54
2023-06-30T21:04:21.611Z,75.20
2023-06-30T21:06:52.476Z,75.37
2023-06-30T21:09:22.333Z,75.34
2023-06-30T21:11:56.507Z,76.04
2023-06-30T21:14:33.830Z,76.28
2023-06-30T21:17:04.062Z,76.97
2023-06-30T21:19:33.908Z,77.06
2023-06-30T21:22:06.209Z,77.43
2023-06-30T21:24:46.932Z,77.90
2023-06-30T21:27:16.479Z,78.29
2023-06-30T21:29:46.097Z,79.00
2023-06-30T21:32:15.258Z,79.07
2023-06-30T21:34:44.429Z,79.31
2023-06-30T21:37:14.395Z,79.58
2023-06-30T21:39:45.509Z,80.07
2023-06-30T21:42:17.077Z,80.31
2023-06-30T21:44:47.195Z,80.99
2023-06-30T21:47:17.847Z,81.07
2023-06-30T21:49:47.470Z,81.33
2023-06-30T21:52:17.388Z,81.40
2023-06-30T21:54:48.392Z,80.94
2023-06-30T21:57:22.705Z,81.99
2023-06-30T21:59:53.572Z,82.30
2023-06-30T22:02:22.835Z,83.23
2023-06-30T22:04:53.126Z,82.83
2023-06-30T22:07:22.702Z,83.31
2023-06-30T22:09:53.229Z,82.67
2023-06-30T22:12:22.948Z,83.59
2023-06-30T22:14:55.733Z,84.58
2023-06-30T22:17:28.092Z,84.17
2023-06-30T22:19:57.311Z,85.32
2023-06-30T22:22:26.297Z,84.97
2023-06-30T22:25:00.394Z,85.46
2023-06-30T22:27:34.930Z,85.74
2023-06-30T22:30:12.700Z,85.85
2023-06-30T22:32:41.942Z,86.16
2023-06-30T22:35:13.458Z,86.23
2023-06-30T22:37:54.921Z,85.77
2023-06-30T22:40:24.335Z,85.77
2023-06-30T22:42:54.395Z,86.17
2023-06-30T22:45:29.015Z,86.39
2023-06-30T22:47:58.095Z,86.43
2023-06-30T22:50:29.014Z,86.61
2023-06-30T22:52:58.666Z,86.94
2023-06-30T22:55:31.441Z,86.72
2023-06-30T22:58:02.155Z,86.45
2023-06-30T23:00:31.608Z,86.90
2023-06-30T23:03:03.087Z,86.86
2023-06-30T23:05:35.612Z,86.88
2023-06-30T23:08:07.320Z,87.34
2023-06-30T23:10:36.562Z,87.41
2023-06-30T23:13:06.371Z,87.60
2023-06-30T23:15:35.373Z,87.77
2023-06-30T23:18:06.117Z,88.15
2023-06-30T23:20:35.575Z,88.08
2023-06-30T23:23:04.999Z,88.08
2023-06-30T23:25:38.113Z,88.14
2023-06-30T23:28:07.404Z,88.18
2023-06-30T23:30:37.237Z,88.50
2023-06-30T23:33:08.829Z,88.53
2023-06-30T23:35:39.459Z,88.52
2023-06-30T23:38:13.507Z,88.53
2023-06-30T23:40:46.649Z,88.82
2023-06-30T23:43:18.776Z,88.71
2023-06-30T23:45:48.375Z,88.74
2023-06-30T23:48:22.395Z,88.54
2023-06-30T23:50:54.080Z,88.83
2023-06-30T23:53:24.064Z,88.86
2023-06-30T23:55:53.373Z,88.84
2023-06-30T23:58:25.125Z,88.79
